createdAt,value
2022-09-06T00:02:15.861Z,15.00
2022-09-06T00:05:02.596Z,15.05
2022-09-06T00:07:50.296Z,15.10
2022-09-06T00:10:37.636Z,15.02
2022-09-06T00:13:25.551Z,15.05
2022-09-06T00:16:13.990Z,15.08
2022-09-06T00:19:00.775Z,15.09
2022-09-06T00:21:47.599Z,15.08
2022-09-06T00:24:34.498Z,15.12
2022-09-06T00:27:21.279Z,15.09
2022-09-06T00:30:11.079Z,15.11
2022-09-06T00:32:58.619Z,15.23
2022-09-06T00:35:47.466Z,15.15
2022-09-06T00:38:34.369Z,15.21
2022-09-06T00:41:21.151Z,15.17
2022-09-06T00:44:07.799Z,15.17
2022-09-06T00:46:56.616Z,15.19
2022-09-06T00:49:47.984Z,15.14
2022-09-06T00:52:35.890Z,15.16
2022-09-06T00:55:24.195Z,15.07
2022-09-06T00:58:11.488Z,15.02
2022-09-06T01:00:57.910Z,14.98
2022-09-06T01:03:46.100Z,14.93
2022-09-06T01:06:40.686Z,15.01
2022-09-06T01:09:41.376Z,14.99
2022-09-06T01:12:39.871Z,15.02
2022-09-06T01:15:35.576Z,14.99
2022-09-06T01:18:33.297Z,15.06
2022-09-06T01:21:36.502Z,15.01
2022-09-06T01:24:51.345Z,15.05
2022-09-06T01:28:28.586Z,15.15
2022-09-06T01:31:30.987Z,15.12
2022-09-06T01:34:25.420Z,15.06
2022-09-06T01:37:15.605Z,15.00
2022-09-06T01:40:02.719Z,14.94
2022-09-06T01:42:53.158Z,14.92
2022-09-06T01:45:51.168Z,14.90
2022-09-06T01:48:56.454Z,14.91
2022-09-06T01:51:55.930Z,14.92
2022-09-06T01:55:03.870Z,14.87
2022-09-06T01:58:02.731Z,14.81
2022-09-06T02:00:58.553Z,14.74
2022-09-06T02:03:54.182Z,14.72
2022-09-06T02:06:44.982Z,14.64
2022-09-06T02:09:41.093Z,14.66
2022-09-06T02:12:31.307Z,14.68
2022-09-06T02:15:23.675Z,14.67
2022-09-06T02:18:14.911Z,14.74
2022-09-06T02:21:05.273Z,14.69
2022-09-06T02:23:54.802Z,14.85
2022-09-06T02:26:45.039Z,14.90
2022-09-06T02:29:32.041Z,14.98
2022-09-06T02:32:22.243Z,14.89
2022-09-06T02:35:14.047Z,14.79
2022-09-06T02:38:01.973Z,14.83
2022-09-06T02:40:50.053Z,14.71
2022-09-06T02:43:36.955Z,14.74
2022-09-06T02:46:24.537Z,14.69
2022-09-06T02:49:11.180Z,14.67
2022-09-06T02:51:58.215Z,14.63
2022-09-06T02:54:46.462Z,14.55
2022-09-06T02:57:32.846Z,14.52
2022-09-06T03:00:19.626Z,14.50
2022-09-06T03:03:07.241Z,14.41
2022-09-06T03:05:54.903Z,14.40
2022-09-06T03:08:41.639Z,14.45
2022-09-06T03:11:29.995Z,14.46
2022-09-06T03:14:17.169Z,14.45
2022-09-06T03:17:04.124Z,14.41
2022-09-06T03:19:50.696Z,14.33
2022-09-06T03:22:37.865Z,14.33
2022-09-06T03:25:25.724Z,14.24
2022-09-06T03:28:14.010Z,14.17
2022-09-06T03:31:00.632Z,14.19
2022-09-06T03:33:47.134Z,14.26
2022-09-06T03:36:33.928Z,14.21
2022-09-06T03:39:21.378Z,14.24
2022-09-06T03:42:08.240Z,14.23
2022-09-06T03:44:55.945Z,14.27
2022-09-06T03:47:42.897Z,14.25
2022-09-06T03:50:29.541Z,14.32
2022-09-06T03:53:17.571Z,14.28
2022-09-06T03:56:04.993Z,14.21
2022-09-06T03:58:51.557Z,14.26
2022-09-06T04:01:39.593Z,14.28
2022-09-06T04:04:26.224Z,14.37
2022-09-06T04:07:13.012Z,14.36
2022-09-06T04:09:59.946Z,14.38
2022-09-06T04:12:46.613Z,14.39
2022-09-06T04:15:33.491Z,14.38
2022-09-06T04:18:22.556Z,14.35
2022-09-06T04:21:09.374Z,14.23
2022-09-06T04:23:56.410Z,14.20
2022-09-06T04:26:43.298Z,14.26
2022-09-06T04:29:29.956Z,14.21
2022-09-06T04:32:16.568Z,14.11
2022-09-06T04:35:05.478Z,14.13
2022-09-06T04:37:52.037Z,14.06
2022-09-06T04:40:38.687Z,14.02
2022-09-06T04:43:25.850Z,13.96
2022-09-06T04:46:19.126Z,13.96
2022-09-06T04:49:05.691Z,13.90
2022-09-06T04:51:53.790Z,13.95
2022-09-06T04:54:42.726Z,13.93
2022-09-06T04:57:29.253Z,13.94
2022-09-06T05:00:16.237Z,14.06
2022-09-06T05:03:02.638Z,14.04
2022-09-06T05:05:49.407Z,14.16
2022-09-06T05:08:39.490Z,14.11
2022-09-06T05:11:26.522Z,14.02
2022-09-06T05:14:13.258Z,14.11
2022-09-06T05:16:59.989Z,14.04
2022-09-06T05:19:47.989Z,14.03
2022-09-06T05:22:34.746Z,14.04
2022-09-06T05:25:22.961Z,14.08
2022-09-06T05:28:09.721Z,14.00
2022-09-06T05:31:06.619Z,14.17
2022-09-06T05:33:53.170Z,14.15
2022-09-06T05:36:40.176Z,14.11
2022-09-06T05:39:26.669Z,14.13
2022-09-06T05:42:19.006Z,14.27
2022-09-06T05:45:07.025Z,14.36
2022-09-06T05:47:53.747Z,14.41
2022-09-06T05:50:40.513Z,14.54
2022-09-06T05:53:27.493Z,14.59
2022-09-06T05:56:15.602Z,14.59
2022-09-06T05:59:04.577Z,14.62
2022-09-06T06:01:53.171Z,14.77
2022-09-06T06:04:39.845Z,14.84
2022-09-06T06:07:26.640Z,14.86
2022-09-06T06:10:13.461Z,14.91
2022-09-06T06:13:00.304Z,14.97
2022-09-06T06:15:48.523Z,15.08
2022-09-06T06:18:35.277Z,15.21
2022-09-06T06:21:24.010Z,15.36
2022-09-06T06:24:10.993Z,15.52
2022-09-06T06:26:57.796Z,15.57
2022-09-06T06:29:44.606Z,15.76
2022-09-06T06:32:32.803Z,15.82
2022-09-06T06:35:19.746Z,15.98
2022-09-06T06:38:06.370Z,16.12
2022-09-06T06:40:57.222Z,16.13
2022-09-06T06:43:46.699Z,16.21
2022-09-06T06:46:35.414Z,16.19
2022-09-06T06:49:23.302Z,16.36
2022-09-06T06:52:09.993Z,16.53
2022-09-06T06:54:56.708Z,16.53
2022-09-06T06:57:43.549Z,16.54
2022-09-06T07:00:30.526Z,16.61
2022-09-06T07:03:17.118Z,16.67
2022-09-06T07:08:54.595Z,16.80
2022-09-06T07:11:41.405Z,16.90
2022-09-06T07:14:28.266Z,16.96
2022-09-06T07:17:15.262Z,16.99
2022-09-06T07:20:17.126Z,16.98
2022-09-06T07:26:16.637Z,17.11
2022-09-06T07:29:04.723Z,17.15
2022-09-06T07:34:59.618Z,17.40
2022-09-06T07:37:53.269Z,17.52
2022-09-06T07:40:41.493Z,17.71
2022-09-06T07:43:29.591Z,17.81
2022-09-06T07:46:18.480Z,18.00
2022-09-06T07:49:05.645Z,18.12
2022-09-06T07:51:52.428Z,18.16
2022-09-06T07:54:39.136Z,18.32
2022-09-06T07:57:27.226Z,18.33
2022-09-06T08:00:14.470Z,18.50
2022-09-06T08:03:01.059Z,18.73
2022-09-06T08:08:58.250Z,19.12
2022-09-06T08:11:45.413Z,19.25
2022-09-06T08:14:33.598Z,19.43
2022-09-06T08:17:20.210Z,19.42
2022-09-06T08:20:07.798Z,19.43
2022-09-06T08:22:54.286Z,19.49
2022-09-06T08:25:40.875Z,19.60
2022-09-06T08:28:28.920Z,19.69
2022-09-06T08:31:19.785Z,19.83
2022-09-06T08:34:07.183Z,20.02
2022-09-06T08:36:54.103Z,20.06
2022-09-06T08:39:44.342Z,20.08
2022-09-06T08:42:32.511Z,20.03
2022-09-06T08:45:21.835Z,19.98
2022-09-06T08:48:10.782Z,20.01
2022-09-06T08:51:13.638Z,20.11
2022-09-06T08:54:07.407Z,20.29
2022-09-06T08:57:04.838Z,20.42
2022-09-06T08:59:58.629Z,20.53
2022-09-06T09:02:48.560Z,20.54
2022-09-06T09:05:38.856Z,20.55
2022-09-06T09:08:29.269Z,20.65
2022-09-06T09:11:19.185Z,20.76
2022-09-06T09:14:13.531Z,20.98
2022-09-06T09:17:04.813Z,20.97
2022-09-06T09:19:51.422Z,21.05
2022-09-06T09:22:41.328Z,21.19
2022-09-06T09:25:30.421Z,21.27
2022-09-06T09:28:20.047Z,21.22
2022-09-06T09:31:07.455Z,21.13
2022-09-06T09:33:54.127Z,21.00
2022-09-06T09:36:41.245Z,20.89
2022-09-06T09:39:37.035Z,20.95
2022-09-06T09:42:28.547Z,21.06
2022-09-06T09:45:26.694Z,20.98
2022-09-06T09:48:24.948Z,20.92
2022-09-06T09:51:26.636Z,21.00
2022-09-06T09:54:16.182Z,21.03
2022-09-06T09:57:11.912Z,20.73
2022-09-06T10:00:01.288Z,20.84
2022-09-06T10:02:51.063Z,20.77
2022-09-06T10:05:37.793Z,20.87
2022-09-06T10:08:26.960Z,20.93
2022-09-06T10:11:15.048Z,21.00
2022-09-06T10:14:13.248Z,21.11
2022-09-06T10:17:01.510Z,21.12
2022-09-06T10:19:49.019Z,21.25
2022-09-06T10:22:46.927Z,21.19
2022-09-06T10:25:40.326Z,21.12
2022-09-06T10:28:31.284Z,21.16
2022-09-06T10:31:45.629Z,21.28
2022-09-06T10:34:51.938Z,21.37
2022-09-06T10:37:49.042Z,21.52
2022-09-06T10:40:41.496Z,21.58
2022-09-06T10:43:36.733Z,21.66
2022-09-06T10:46:29.283Z,21.62
2022-09-06T10:49:19.824Z,21.65
2022-09-06T10:52:11.043Z,21.83
2022-09-06T10:55:03.914Z,21.87
2022-09-06T11:01:04.576Z,21.61
2022-09-06T11:03:55.651Z,21.59
2022-09-06T11:06:46.590Z,21.69
2022-09-06T11:09:40.050Z,21.53
2022-09-06T11:12:36.354Z,21.77
2022-09-06T11:15:26.580Z,21.79
2022-09-06T11:18:21.178Z,22.03
2022-09-06T11:21:44.056Z,22.12
2022-09-06T11:24:43.782Z,22.21
2022-09-06T11:27:37.607Z,22.35
2022-09-06T11:30:25.715Z,22.48
2022-09-06T11:33:24.847Z,22.62
2022-09-06T11:36:36.021Z,22.75
2022-09-06T11:43:03.207Z,22.48
2022-09-06T11:45:53.157Z,22.46
2022-09-06T11:49:03.548Z,22.47
2022-09-06T11:51:50.079Z,22.37
2022-09-06T11:54:43.982Z,22.09
2022-09-06T11:57:32.129Z,21.87
2022-09-06T12:00:21.981Z,22.08
2022-09-06T12:06:20.230Z,22.16
2022-09-06T12:09:28.936Z,22.13
2022-09-06T12:12:48.227Z,22.02
2022-09-06T12:15:46.780Z,22.01
2022-09-06T12:19:01.158Z,21.98
2022-09-06T12:21:52.166Z,22.06
2022-09-06T12:24:56.583Z,22.15
2022-09-06T12:27:54.114Z,22.24
2022-09-06T12:30:43.803Z,22.32
2022-09-06T12:33:33.145Z,22.23
2022-09-06T12:36:23.777Z,22.28
2022-09-06T12:39:13.190Z,22.33
2022-09-06T12:42:03.094Z,22.29
2022-09-06T12:44:52.273Z,22.43
2022-09-06T12:47:41.223Z,22.29
2022-09-06T12:50:31.637Z,22.26
2022-09-06T12:53:24.673Z,22.26
2022-09-06T12:56:13.561Z,22.33
2022-09-06T12:59:17.692Z,22.33
2022-09-06T13:02:09.529Z,22.41
2022-09-06T13:05:05.500Z,22.42
2022-09-06T13:07:54.423Z,22.30
2022-09-06T13:10:46.045Z,22.30
2022-09-06T13:13:32.748Z,22.30
2022-09-06T13:16:22.443Z,22.30
2022-09-06T13:19:14.913Z,22.28
2022-09-06T13:22:03.970Z,22.32
2022-09-06T13:24:50.754Z,22.37
2022-09-06T13:27:38.682Z,22.46
2022-09-06T13:30:34.634Z,22.41
2022-09-06T13:33:25.569Z,22.33
2022-09-06T13:36:23.992Z,22.22
2022-09-06T13:39:12.508Z,22.18
2022-09-06T13:42:03.235Z,22.17
2022-09-06T13:44:52.115Z,22.29
2022-09-06T13:47:38.829Z,22.38
2022-09-06T13:50:27.865Z,22.33
2022-09-06T13:53:20.497Z,22.33
2022-09-06T13:56:08.885Z,22.31
2022-09-06T13:58:55.450Z,22.31
2022-09-06T14:01:45.844Z,22.33
2022-09-06T14:04:33.066Z,22.37
2022-09-06T14:07:19.408Z,22.35
2022-09-06T14:10:06.927Z,22.41
2022-09-06T14:12:55.038Z,22.49
2022-09-06T14:15:41.864Z,22.59
2022-09-06T14:18:30.078Z,22.72
2022-09-06T14:21:17.806Z,22.68
2022-09-06T14:24:05.108Z,22.55
2022-09-06T14:26:52.121Z,22.72
2022-09-06T14:29:39.466Z,22.67
2022-09-06T14:32:26.924Z,22.61
2022-09-06T14:35:14.967Z,22.58
2022-09-06T14:38:01.833Z,22.65
2022-09-06T14:40:48.484Z,22.56
2022-09-06T14:43:36.050Z,22.62
2022-09-06T14:46:24.826Z,22.47
2022-09-06T14:49:11.742Z,22.59
2022-09-06T14:51:59.626Z,22.57
2022-09-06T14:54:46.529Z,22.65
2022-09-06T14:57:33.211Z,22.65
2022-09-06T15:00:20.123Z,22.64
2022-09-06T15:03:06.828Z,22.60
2022-09-06T15:05:53.529Z,22.61
2022-09-06T15:08:41.812Z,22.64
2022-09-06T15:11:30.365Z,22.67
2022-09-06T15:14:18.960Z,22.59
2022-09-06T15:17:08.908Z,22.51
2022-09-06T15:19:56.392Z,22.43
2022-09-06T15:22:43.157Z,22.27
2022-09-06T15:25:32.218Z,22.24
2022-09-06T15:28:19.575Z,22.17
2022-09-06T15:31:06.969Z,22.27
2022-09-06T15:33:53.987Z,22.22
2022-09-06T15:36:40.813Z,22.21
2022-09-06T15:39:27.465Z,22.12
2022-09-06T15:42:15.620Z,22.15
2022-09-06T15:45:02.730Z,22.17
2022-09-06T15:47:49.166Z,22.10
2022-09-06T15:50:50.827Z,22.02
2022-09-06T15:53:39.075Z,22.10
2022-09-06T15:56:25.882Z,22.00
2022-09-06T15:59:14.247Z,22.04
2022-09-06T16:02:01.007Z,21.98
2022-09-06T16:04:48.074Z,21.94
2022-09-06T16:07:34.580Z,21.91
2022-09-06T16:10:21.511Z,21.87
2022-09-06T16:13:08.102Z,21.85
2022-09-06T16:16:00.571Z,21.88
2022-09-06T16:18:48.293Z,21.73
2022-09-06T16:21:35.794Z,21.69
2022-09-06T16:24:23.669Z,21.69
2022-09-06T16:27:10.136Z,21.69
2022-09-06T16:29:56.850Z,21.67
2022-09-06T16:32:45.039Z,21.53
2022-09-06T16:35:31.848Z,21.44
2022-09-06T16:38:18.730Z,21.42
2022-09-06T16:41:12.031Z,21.51
2022-09-06T16:44:00.047Z,21.50
2022-09-06T16:46:48.542Z,21.54
2022-09-06T16:49:36.398Z,21.63
2022-09-06T16:52:22.902Z,21.59
2022-09-06T16:55:09.860Z,21.53
2022-09-06T16:57:56.655Z,21.44
2022-09-06T17:00:45.021Z,21.39
2022-09-06T17:03:31.523Z,21.50
2022-09-06T17:06:20.468Z,21.29
2022-09-06T17:09:07.294Z,21.33
2022-09-06T17:11:53.874Z,21.21
2022-09-06T17:14:40.757Z,21.07
2022-09-06T17:17:27.826Z,21.08
2022-09-06T17:20:15.863Z,20.89
2022-09-06T17:23:03.952Z,20.94
2022-09-06T17:25:51.343Z,20.93
2022-09-06T17:28:40.727Z,20.81
2022-09-06T17:31:27.541Z,20.74
2022-09-06T17:34:15.091Z,20.80
2022-09-06T17:37:02.052Z,20.75
2022-09-06T17:39:50.330Z,20.66
2022-09-06T17:42:37.944Z,20.46
2022-09-06T17:45:24.834Z,20.48
2022-09-06T17:48:11.750Z,20.40
2022-09-06T17:51:06.997Z,20.40
2022-09-06T17:53:53.956Z,20.30
2022-09-06T17:56:42.098Z,20.15
2022-09-06T17:59:34.240Z,20.07
2022-09-06T18:02:22.026Z,20.02
2022-09-06T18:05:09.645Z,19.94
2022-09-06T18:07:55.896Z,19.87
2022-09-06T18:10:43.607Z,19.82
2022-09-06T18:13:32.121Z,19.72
2022-09-06T18:16:18.922Z,19.63
2022-09-06T18:19:07.377Z,19.55
2022-09-06T18:21:54.310Z,19.50
2022-09-06T18:24:40.920Z,19.49
2022-09-06T18:27:28.312Z,19.33
2022-09-06T18:30:17.087Z,19.24
2022-09-06T18:33:04.311Z,19.14
2022-09-06T18:35:51.282Z,18.98
2022-09-06T18:38:39.738Z,18.85
2022-09-06T18:41:43.730Z,18.82
2022-09-06T18:44:32.576Z,18.86
2022-09-06T18:47:22.505Z,18.72
2022-09-06T18:50:10.029Z,18.69
2022-09-06T18:52:56.902Z,18.63
2022-09-06T18:55:43.968Z,18.54
2022-09-06T18:58:31.135Z,18.51
2022-09-06T19:01:20.194Z,18.51
2022-09-06T19:04:08.810Z,18.49
2022-09-06T19:06:55.260Z,18.48
2022-09-06T19:09:42.007Z,18.48
2022-09-06T19:12:28.714Z,18.50
2022-09-06T19:15:15.618Z,18.50
2022-09-06T19:18:03.123Z,18.48
2022-09-06T19:20:58.990Z,18.46
2022-09-06T19:23:48.229Z,18.49
2022-09-06T19:26:36.628Z,18.49
2022-09-06T19:29:23.365Z,18.52
2022-09-06T19:32:10.260Z,18.54
2022-09-06T19:34:57.026Z,18.53
2022-09-06T19:37:45.235Z,18.52
2022-09-06T19:40:32.175Z,18.49
2022-09-06T19:43:19.074Z,18.54
2022-09-06T19:46:06.950Z,18.53
2022-09-06T19:48:56.286Z,18.48
2022-09-06T19:51:43.953Z,18.49
2022-09-06T19:54:31.777Z,18.63
2022-09-06T19:57:18.376Z,18.63
2022-09-06T20:00:05.910Z,18.54
2022-09-06T20:02:58.365Z,18.53
2022-09-06T20:05:46.066Z,18.47
2022-09-06T20:08:32.948Z,18.45
2022-09-06T20:11:22.759Z,18.39
2022-09-06T20:14:10.097Z,18.39
2022-09-06T20:17:06.539Z,18.42
2022-09-06T20:20:04.322Z,18.35
2022-09-06T20:22:51.157Z,18.33
2022-09-06T20:25:38.214Z,18.27
2022-09-06T20:28:26.457Z,18.23
2022-09-06T20:31:15.604Z,18.19
2022-09-06T20:34:04.372Z,18.18
2022-09-06T20:36:50.990Z,18.14
2022-09-06T20:39:37.762Z,18.08
2022-09-06T20:42:24.579Z,18.05
2022-09-06T20:45:13.055Z,17.99
2022-09-06T20:47:59.586Z,18.07
2022-09-06T20:50:46.810Z,17.99
2022-09-06T20:53:33.814Z,17.99
2022-09-06T20:56:23.052Z,17.78
2022-09-06T20:59:11.866Z,17.75
2022-09-06T21:02:00.791Z,17.74
2022-09-06T21:04:47.461Z,17.71
2022-09-06T21:07:34.332Z,17.69
2022-09-06T21:10:20.735Z,17.67
2022-09-06T21:13:07.564Z,17.67
2022-09-06T21:15:54.546Z,17.64
2022-09-06T21:18:43.548Z,17.67
2022-09-06T21:21:31.465Z,17.57
2022-09-06T21:24:18.072Z,17.48
2022-09-06T21:27:04.930Z,17.36
2022-09-06T21:29:51.833Z,17.27
2022-09-06T21:32:38.573Z,17.24
2022-09-06T21:35:26.777Z,17.26
2022-09-06T21:38:13.642Z,17.27
2022-09-06T21:41:00.700Z,17.29
2022-09-06T21:43:52.730Z,17.37
2022-09-06T21:46:40.471Z,17.40
2022-09-06T21:49:26.894Z,17.45
2022-09-06T21:52:15.222Z,17.47
2022-09-06T21:55:01.877Z,17.59
2022-09-06T21:57:48.794Z,17.61
2022-09-06T22:00:37.358Z,17.63
2022-09-06T22:03:24.618Z,17.55
2022-09-06T22:06:12.861Z,17.57
2022-09-06T22:09:02.277Z,17.57
2022-09-06T22:11:49.147Z,17.62
2022-09-06T22:14:35.898Z,17.69
2022-09-06T22:17:22.649Z,17.70
2022-09-06T22:20:11.996Z,17.51
2022-09-06T22:22:58.825Z,17.52
2022-09-06T22:25:46.820Z,17.51
2022-09-06T22:28:34.041Z,17.68
2022-09-06T22:31:20.937Z,17.51
2022-09-06T22:34:08.060Z,17.44
2022-09-06T22:36:54.675Z,17.39
2022-09-06T22:39:42.342Z,17.35
2022-09-06T22:42:30.144Z,17.36
2022-09-06T22:45:17.026Z,17.36
2022-09-06T22:48:04.227Z,17.33
2022-09-06T22:50:51.033Z,17.38
2022-09-06T22:53:38.747Z,17.39
2022-09-06T22:56:25.596Z,17.42
2022-09-06T22:59:13.470Z,17.33
2022-09-06T23:02:00.254Z,17.33
2022-09-06T23:04:47.227Z,17.35
2022-09-06T23:07:34.409Z,17.31
2022-09-06T23:10:21.170Z,17.31
2022-09-06T23:13:07.930Z,17.34
2022-09-06T23:15:55.963Z,17.34
2022-09-06T23:18:42.723Z,17.31
2022-09-06T23:21:29.516Z,17.23
2022-09-06T23:24:16.508Z,17.12
2022-09-06T23:27:04.866Z,17.11
2022-09-06T23:29:51.777Z,16.90
2022-09-06T23:32:42.013Z,16.71
2022-09-06T23:35:29.094Z,16.55
2022-09-06T23:38:17.685Z,16.44
2022-09-06T23:41:06.660Z,16.42
2022-09-06T23:43:53.991Z,16.41
2022-09-06T23:46:40.793Z,16.44
2022-09-06T23:49:29.177Z,16.56
2022-09-06T23:52:15.784Z,16.68
2022-09-06T23:55:04.612Z,16.77
2022-09-06T23:57:51.428Z,16.86
